createdAt,value
2018-05-26T00:00:22.599Z,45.60
2018-05-26T00:00:54.636Z,45.70
2018-05-26T00:01:27.414Z,45.70
2018-05-26T00:01:59.465Z,45.60
2018-05-26T00:02:32.248Z,45.60
2018-05-26T00:03:04.292Z,45.60
2018-05-26T00:03:36.316Z,45.70
2018-05-26T00:04:09.121Z,45.70
2018-05-26T00:04:41.154Z,45.70
2018-05-26T00:05:13.171Z,45.60
2018-05-26T00:05:45.236Z,45.60
2018-05-26T00:06:17.250Z,45.60
2018-05-26T00:06:49.311Z,45.50
2018-05-26T00:07:21.318Z,45.60
2018-05-26T00:07:53.371Z,45.60
2018-05-26T00:08:26.157Z,45.70
2018-05-26T00:08:58.240Z,45.70
2018-05-26T00:09:30.223Z,45.60
2018-05-26T00:10:03.030Z,45.80
2018-05-26T00:10:35.047Z,45.70
2018-05-26T00:11:07.843Z,45.70
2018-05-26T00:11:39.921Z,45.70
2018-05-26T00:12:12.666Z,45.70
2018-05-26T00:12:44.698Z,45.60
2018-05-26T00:13:17.519Z,45.70
2018-05-26T00:13:49.540Z,45.70
2018-05-26T00:14:21.560Z,45.60
2018-05-26T00:14:54.383Z,45.70
2018-05-26T00:15:26.412Z,45.70
2018-05-26T00:15:58.435Z,45.70
2018-05-26T00:16:31.216Z,45.70
2018-05-26T00:17:03.272Z,45.70
2018-05-26T00:17:35.304Z,45.70
2018-05-26T00:18:08.092Z,45.60
2018-05-26T00:18:40.135Z,45.60
2018-05-26T00:19:12.246Z,45.50
2018-05-26T00:19:44.273Z,45.50
2018-05-26T00:20:16.295Z,45.50
2018-05-26T00:20:48.351Z,45.50
2018-05-26T00:21:20.392Z,45.50
2018-05-26T00:21:53.201Z,45.50
2018-05-26T00:22:25.281Z,45.40
2018-05-26T00:22:57.351Z,45.40
2018-05-26T00:23:30.151Z,45.60
2018-05-26T00:24:02.159Z,45.50
2018-05-26T00:24:34.944Z,45.70
2018-05-26T00:25:06.980Z,45.60
2018-05-26T00:25:39.883Z,46.50
2018-05-26T00:26:11.827Z,45.70
2018-05-26T00:26:43.859Z,45.80
2018-05-26T00:27:16.635Z,45.80
2018-05-26T00:27:48.663Z,45.70
2018-05-26T00:28:20.682Z,45.70
2018-05-26T00:28:52.781Z,45.80
2018-05-26T00:29:25.568Z,45.70
2018-05-26T00:29:57.590Z,45.70
2018-05-26T00:30:30.385Z,45.80
2018-05-26T00:31:02.435Z,45.70
2018-05-26T00:31:34.473Z,45.70
2018-05-26T00:32:07.260Z,45.80
2018-05-26T00:32:39.279Z,45.70
2018-05-26T00:33:12.120Z,45.70
2018-05-26T00:33:44.131Z,45.70
2018-05-26T00:34:16.190Z,45.60
2018-05-26T00:34:48.255Z,45.70
2018-05-26T00:35:20.287Z,45.70
2018-05-26T00:35:52.322Z,45.70
2018-05-26T00:36:25.098Z,45.70
2018-05-26T00:36:57.128Z,45.70
2018-05-26T00:37:29.926Z,45.80
2018-05-26T00:38:01.953Z,45.80
2018-05-26T00:38:34.750Z,45.70
2018-05-26T00:39:06.777Z,45.70
2018-05-26T00:39:39.607Z,45.60
2018-05-26T00:40:11.636Z,45.50
2018-05-26T00:40:43.669Z,45.60
2018-05-26T00:41:15.684Z,45.50
2018-05-26T00:41:47.999Z,45.60
2018-05-26T00:42:20.058Z,45.50
2018-05-26T00:42:52.083Z,45.50
2018-05-26T00:43:24.121Z,45.40
2018-05-26T00:43:56.190Z,45.50
2018-05-26T00:44:28.243Z,45.60
2018-05-26T00:45:00.304Z,45.60
2018-05-26T00:45:32.315Z,45.70
2018-05-26T00:46:05.109Z,45.60
2018-05-26T00:46:37.133Z,45.50
2018-05-26T00:47:09.922Z,45.60
2018-05-26T00:47:41.977Z,45.60
2018-05-26T00:48:14.003Z,45.70
2018-05-26T00:48:46.134Z,45.80
2018-05-26T00:49:18.126Z,45.80
2018-05-26T00:49:50.139Z,45.80
2018-05-26T00:50:22.188Z,45.80
2018-05-26T00:50:54.200Z,45.80
2018-05-26T00:51:26.229Z,45.90
2018-05-26T00:51:58.266Z,45.90
2018-05-26T00:52:31.080Z,45.90
2018-05-26T00:53:03.106Z,45.90
2018-05-26T00:53:35.131Z,45.90
2018-05-26T00:54:07.939Z,46.00
2018-05-26T00:54:39.974Z,45.90
2018-05-26T00:55:12.035Z,45.90
2018-05-26T00:55:44.058Z,46.00
2018-05-26T00:56:16.865Z,46.10
2018-05-26T00:56:48.936Z,46.00
2018-05-26T00:57:20.920Z,45.90
2018-05-26T00:57:52.939Z,45.90
2018-05-26T00:58:24.991Z,46.00
2018-05-26T00:58:57.036Z,45.90
2018-05-26T00:59:29.052Z,46.00
2018-05-26T01:00:01.098Z,45.90
2018-05-26T01:00:33.125Z,45.90
2018-05-26T01:01:05.150Z,45.90
2018-05-26T01:01:37.182Z,45.70
2018-05-26T01:02:09.238Z,45.70
2018-05-26T01:02:41.272Z,45.70
2018-05-26T01:03:13.282Z,45.70
2018-05-26T01:03:46.091Z,45.70
2018-05-26T01:04:18.111Z,45.70
2018-05-26T01:04:50.911Z,45.80
2018-05-26T01:05:22.946Z,45.80
2018-05-26T01:05:54.978Z,45.90
2018-05-26T01:06:27.798Z,45.90
2018-05-26T01:06:59.807Z,45.90
2018-05-26T01:07:32.612Z,45.90
2018-05-26T01:08:04.646Z,45.90
2018-05-26T01:08:36.669Z,45.70
2018-05-26T01:09:09.462Z,45.70
2018-05-26T01:09:41.515Z,45.70
2018-05-26T01:10:13.544Z,45.80
2018-05-26T01:10:46.329Z,45.90
2018-05-26T01:11:18.379Z,46.60
2018-05-26T01:11:51.164Z,45.80
2018-05-26T01:12:23.195Z,45.80
2018-05-26T01:12:55.982Z,45.70
2018-05-26T01:13:28.003Z,45.70
2018-05-26T01:14:00.792Z,45.80
2018-05-26T01:14:32.823Z,45.80
2018-05-26T01:15:05.631Z,45.70
2018-05-26T01:15:37.664Z,45.70
2018-05-26T01:16:09.701Z,45.60
2018-05-26T01:16:42.535Z,45.70
2018-05-26T01:17:14.561Z,45.70
2018-05-26T01:17:46.579Z,45.70
2018-05-26T01:18:18.611Z,45.60
2018-05-26T01:18:50.639Z,45.60
2018-05-26T01:19:22.663Z,45.60
2018-05-26T01:19:54.686Z,45.40
2018-05-26T01:20:26.716Z,45.40
2018-05-26T01:20:58.730Z,45.30
2018-05-26T01:21:30.777Z,45.40
2018-05-26T01:22:02.809Z,45.50
2018-05-26T01:22:34.830Z,45.50
2018-05-26T01:23:07.625Z,45.50
2018-05-26T01:23:39.673Z,45.50
2018-05-26T01:24:11.679Z,45.50
2018-05-26T01:24:43.709Z,46.30
2018-05-26T01:25:15.747Z,45.60
2018-05-26T01:25:47.778Z,45.50
2018-05-26T01:26:19.788Z,45.60
2018-05-26T01:26:51.811Z,45.50
2018-05-26T01:27:23.838Z,45.60
2018-05-26T01:27:55.892Z,45.50
2018-05-26T01:28:27.915Z,45.50
2018-05-26T01:28:59.941Z,45.50
2018-05-26T01:29:31.970Z,45.50
2018-05-26T01:30:04.004Z,45.50
2018-05-26T01:30:36.022Z,45.50
2018-05-26T01:31:08.088Z,45.70
2018-05-26T01:31:40.108Z,45.60
2018-05-26T01:32:12.898Z,45.60
2018-05-26T01:32:44.914Z,45.60
2018-05-26T01:33:16.946Z,45.60
2018-05-26T01:33:48.955Z,45.50
2018-05-26T01:34:20.998Z,45.40
2018-05-26T01:34:53.807Z,45.50
2018-05-26T01:35:25.824Z,45.40
2018-05-26T01:35:57.856Z,45.40
2018-05-26T01:36:30.647Z,45.40
2018-05-26T01:37:02.708Z,45.40
2018-05-26T01:37:34.730Z,45.40
2018-05-26T01:38:07.516Z,45.40
2018-05-26T01:38:39.551Z,45.40
2018-05-26T01:39:12.348Z,45.60
2018-05-26T01:39:44.386Z,45.40
2018-05-26T01:40:17.163Z,45.30
2018-05-26T01:40:49.188Z,45.30
2018-05-26T01:41:22.009Z,45.50
2018-05-26T01:41:54.048Z,45.50
2018-05-26T01:42:26.082Z,45.60
2018-05-26T01:42:58.143Z,45.50
2018-05-26T01:43:30.178Z,45.50
2018-05-26T01:44:02.218Z,45.60
2018-05-26T01:44:34.999Z,45.60
2018-05-26T01:45:07.055Z,45.50
2018-05-26T01:45:39.130Z,45.50
2018-05-26T01:46:11.198Z,45.50
2018-05-26T01:46:43.303Z,45.50
2018-05-26T01:47:15.295Z,45.50
2018-05-26T01:47:47.336Z,45.50
2018-05-26T01:48:19.369Z,45.30
2018-05-26T01:48:51.412Z,45.40
2018-05-26T01:49:23.443Z,45.50
2018-05-26T01:49:56.250Z,45.50
2018-05-26T01:50:28.299Z,45.50
2018-05-26T01:51:00.335Z,45.50
2018-05-26T01:51:32.371Z,45.50
2018-05-26T01:52:04.391Z,45.50
2018-05-26T01:52:36.462Z,45.50
2018-05-26T01:53:08.501Z,46.20
2018-05-26T01:53:40.527Z,45.50
2018-05-26T01:54:12.552Z,45.40
2018-05-26T01:54:44.595Z,45.40
2018-05-26T01:55:16.616Z,45.40
2018-05-26T01:55:48.663Z,45.30
2018-05-26T01:56:20.679Z,45.30
2018-05-26T01:56:52.706Z,45.30
2018-05-26T01:57:24.733Z,45.30
2018-05-26T01:57:57.546Z,45.30
2018-05-26T01:58:29.559Z,45.30
2018-05-26T01:59:02.359Z,45.30
2018-05-26T01:59:34.379Z,45.30
2018-05-26T02:00:07.176Z,45.20
2018-05-26T02:00:39.202Z,45.20
2018-05-26T02:01:11.241Z,45.20
2018-05-26T02:01:43.252Z,45.20
2018-05-26T02:02:15.287Z,45.30
2018-05-26T02:02:47.365Z,45.30
2018-05-26T02:03:19.373Z,45.30
2018-05-26T02:03:51.399Z,45.30
2018-05-26T02:04:24.207Z,45.50
2018-05-26T02:04:56.226Z,45.50
2018-05-26T02:05:29.020Z,45.40
2018-05-26T02:06:01.084Z,45.30
2018-05-26T02:06:33.113Z,45.30
2018-05-26T02:07:05.139Z,45.30
2018-05-26T02:07:37.945Z,45.30
2018-05-26T02:08:09.975Z,45.30
2018-05-26T02:08:42.006Z,45.30
2018-05-26T02:09:14.033Z,45.20
2018-05-26T02:09:46.078Z,45.30
2018-05-26T02:10:18.118Z,45.30
2018-05-26T02:10:50.136Z,45.30
2018-05-26T02:11:22.812Z,45.50
2018-05-26T02:11:55.567Z,45.50
2018-05-26T02:12:27.614Z,45.30
2018-05-26T02:13:00.427Z,45.30
2018-05-26T02:13:32.443Z,46.00
2018-05-26T02:14:04.502Z,45.40
2018-05-26T02:14:36.563Z,45.40
2018-05-26T02:15:08.624Z,45.30
2018-05-26T02:15:40.644Z,45.40
2018-05-26T02:16:12.677Z,45.40
2018-05-26T02:16:44.689Z,45.40
2018-05-26T02:17:16.740Z,45.40
2018-05-26T02:17:48.759Z,45.40
2018-05-26T02:18:20.786Z,45.40
2018-05-26T02:18:53.615Z,45.50
2018-05-26T02:19:25.637Z,45.50
2018-05-26T02:19:57.658Z,45.60
2018-05-26T02:20:30.448Z,45.60
2018-05-26T02:21:02.478Z,45.50
2018-05-26T02:21:35.276Z,45.60
2018-05-26T02:22:07.298Z,45.40
2018-05-26T02:22:40.097Z,45.50
2018-05-26T02:23:12.130Z,45.50
2018-05-26T02:23:44.924Z,45.60
2018-05-26T02:24:16.943Z,45.40
2018-05-26T02:24:49.739Z,45.60
2018-05-26T02:25:21.756Z,45.50
2018-05-26T02:25:54.552Z,45.60
2018-05-26T02:26:26.582Z,45.60
2018-05-26T02:26:59.380Z,45.70
2018-05-26T02:27:31.401Z,45.70
2018-05-26T02:28:04.202Z,45.70
2018-05-26T02:28:36.228Z,45.60
2018-05-26T02:29:09.041Z,45.50
2018-05-26T02:29:41.092Z,45.50
2018-05-26T02:30:13.145Z,45.60
2018-05-26T02:30:45.155Z,45.60
2018-05-26T02:31:17.193Z,45.70
2018-05-26T02:31:50.012Z,46.50
2018-05-26T02:32:22.040Z,45.60
2018-05-26T02:32:54.067Z,45.60
2018-05-26T02:33:26.866Z,45.60
2018-05-26T02:33:58.887Z,45.60
2018-05-26T02:34:31.681Z,45.60
2018-05-26T02:35:03.708Z,45.50
2018-05-26T02:35:36.533Z,45.60
2018-05-26T02:36:08.561Z,45.60
2018-05-26T02:36:40.573Z,45.60
2018-05-26T02:37:13.405Z,45.60
2018-05-26T02:37:45.496Z,45.50
2018-05-26T02:38:18.407Z,45.60
2018-05-26T02:38:50.424Z,45.60
2018-05-26T02:39:23.239Z,45.60
2018-05-26T02:39:55.321Z,45.50
2018-05-26T02:40:27.332Z,45.50
2018-05-26T02:40:59.357Z,45.60
2018-05-26T02:41:31.395Z,45.60
2018-05-26T02:42:04.183Z,45.70
2018-05-26T02:42:36.212Z,45.60
2018-05-26T02:43:08.999Z,45.80
2018-05-26T02:43:41.045Z,45.80
2018-05-26T02:44:13.837Z,45.80
2018-05-26T02:44:45.864Z,45.80
2018-05-26T02:45:18.653Z,45.70
2018-05-26T02:45:50.699Z,45.70
2018-05-26T02:46:22.722Z,45.80
2018-05-26T02:46:55.511Z,45.70
2018-05-26T02:47:27.563Z,45.70
2018-05-26T02:48:00.343Z,45.60
2018-05-26T02:48:32.400Z,45.50
2018-05-26T02:49:04.417Z,45.50
2018-05-26T02:49:37.203Z,45.50
2018-05-26T02:50:09.224Z,45.50
2018-05-26T02:50:41.265Z,45.50
2018-05-26T02:51:13.292Z,45.50
2018-05-26T02:51:45.346Z,45.40
2018-05-26T02:52:17.353Z,45.50
2018-05-26T02:52:50.172Z,45.60
2018-05-26T02:53:22.194Z,45.50
2018-05-26T02:53:54.243Z,45.50
2018-05-26T02:54:26.296Z,45.50
2018-05-26T02:54:58.324Z,45.50
2018-05-26T02:55:31.119Z,46.30
2018-05-26T02:56:03.143Z,45.50
2018-05-26T02:56:35.938Z,46.50
2018-05-26T02:57:07.991Z,45.70
2018-05-26T02:57:40.021Z,45.70
2018-05-26T02:58:12.816Z,45.80
2018-05-26T02:58:44.857Z,45.80
2018-05-26T02:59:16.932Z,45.70
2018-05-26T02:59:48.969Z,45.70
2018-05-26T03:00:21.760Z,45.70
2018-05-26T03:00:53.782Z,45.70
2018-05-26T03:01:25.829Z,45.70
2018-05-26T03:01:57.877Z,45.70
2018-05-26T03:02:29.903Z,45.70
2018-05-26T03:03:02.698Z,45.80
2018-05-26T03:03:34.749Z,45.70
2018-05-26T03:04:07.519Z,45.80
2018-05-26T03:04:39.560Z,45.80
2018-05-26T03:05:11.597Z,45.80
2018-05-26T03:05:43.603Z,45.80
2018-05-26T03:06:15.671Z,45.80
2018-05-26T03:06:47.691Z,45.70
2018-05-26T03:07:19.742Z,45.70
2018-05-26T03:07:51.762Z,45.70
2018-05-26T03:08:23.831Z,45.70
2018-05-26T03:08:55.918Z,45.60
2018-05-26T03:09:27.947Z,45.60
2018-05-26T03:09:59.966Z,45.60
2018-05-26T03:10:32.775Z,45.50
2018-05-26T03:11:04.812Z,45.50
2018-05-26T03:11:36.834Z,45.50
2018-05-26T03:12:09.651Z,45.50
2018-05-26T03:12:41.682Z,45.50
2018-05-26T03:13:13.701Z,45.50
2018-05-26T03:13:46.500Z,45.60
2018-05-26T03:14:18.523Z,45.50
2018-05-26T03:14:51.341Z,45.50
2018-05-26T03:15:23.364Z,45.50
2018-05-26T03:15:55.431Z,45.60
2018-05-26T03:16:27.464Z,45.60
2018-05-26T03:16:59.503Z,45.60
2018-05-26T03:17:32.327Z,45.70
2018-05-26T03:18:04.370Z,45.60
2018-05-26T03:18:36.382Z,45.70
2018-05-26T03:19:08.410Z,45.60
2018-05-26T03:19:40.450Z,45.50
2018-05-26T03:20:12.479Z,45.50
2018-05-26T03:20:44.522Z,45.40
2018-05-26T03:21:16.542Z,45.60
2018-05-26T03:21:48.576Z,45.60
2018-05-26T03:22:21.377Z,45.50
2018-05-26T03:22:53.383Z,45.50
2018-05-26T03:23:25.410Z,45.50
2018-05-26T03:23:57.447Z,45.20
2018-05-26T03:24:29.462Z,45.40
2018-05-26T03:25:01.509Z,45.20
2018-05-26T03:25:34.302Z,45.20
2018-05-26T03:26:06.334Z,45.20
2018-05-26T03:26:38.381Z,45.40
2018-05-26T03:27:11.174Z,45.50
2018-05-26T03:27:43.191Z,45.50
2018-05-26T03:28:16.002Z,45.50
2018-05-26T03:28:48.029Z,45.50
2018-05-26T03:29:20.091Z,45.50
2018-05-26T03:29:52.123Z,45.40
2018-05-26T03:30:24.913Z,45.50
2018-05-26T03:30:56.974Z,45.50
2018-05-26T03:31:28.994Z,45.50
2018-05-26T03:32:01.793Z,45.60
2018-05-26T03:32:33.892Z,45.50
2018-05-26T03:33:05.907Z,45.50
2018-05-26T03:33:38.013Z,45.40
2018-05-26T03:34:10.015Z,45.40
2018-05-26T03:34:42.074Z,45.40
2018-05-26T03:35:14.102Z,45.50
2018-05-26T03:35:46.147Z,45.60
2018-05-26T03:36:18.187Z,45.50
2018-05-26T03:36:50.971Z,45.40
2018-05-26T03:37:23.005Z,45.40
2018-05-26T03:37:55.032Z,45.40
2018-05-26T03:38:27.075Z,45.40
2018-05-26T03:38:59.110Z,46.00
2018-05-26T03:39:31.173Z,45.40
2018-05-26T03:40:03.158Z,45.50
2018-05-26T03:40:35.216Z,45.50
2018-05-26T03:41:08.039Z,45.50
2018-05-26T03:41:40.083Z,45.50
2018-05-26T03:42:12.114Z,45.60
2018-05-26T03:42:44.189Z,45.60
2018-05-26T03:43:16.214Z,45.60
2018-05-26T03:43:48.241Z,45.60
2018-05-26T03:44:20.266Z,45.60
2018-05-26T03:44:53.095Z,45.90
2018-05-26T03:45:25.147Z,45.60
2018-05-26T03:45:57.188Z,45.60
2018-05-26T03:46:29.214Z,45.50
2018-05-26T03:47:01.261Z,45.60
2018-05-26T03:47:34.041Z,45.60
2018-05-26T03:48:06.068Z,45.50
2018-05-26T03:48:38.864Z,45.60
2018-05-26T03:49:10.970Z,45.50
2018-05-26T03:49:42.968Z,45.40
2018-05-26T03:50:15.756Z,45.50
2018-05-26T03:50:47.779Z,45.40
2018-05-26T03:51:19.818Z,45.60
2018-05-26T03:51:52.611Z,45.50
2018-05-26T03:52:24.625Z,45.40
2018-05-26T03:52:57.419Z,45.40
2018-05-26T03:53:29.461Z,45.50
2018-05-26T03:54:02.239Z,45.40
2018-05-26T03:54:34.259Z,45.30
2018-05-26T03:55:06.307Z,45.40
2018-05-26T03:55:38.333Z,45.40
2018-05-26T03:56:10.377Z,45.50
2018-05-26T03:56:42.402Z,45.50
2018-05-26T03:57:14.427Z,45.40
2018-05-26T03:57:47.214Z,45.50
2018-05-26T03:58:19.250Z,45.50
2018-05-26T03:58:52.052Z,45.50
2018-05-26T03:59:24.103Z,45.50
2018-05-26T03:59:56.165Z,45.50
2018-05-26T04:00:28.178Z,45.60
2018-05-26T04:01:00.235Z,45.60
2018-05-26T04:01:33.022Z,45.60
2018-05-26T04:02:05.065Z,45.50
2018-05-26T04:02:37.100Z,45.60
2018-05-26T04:03:09.878Z,45.50
2018-05-26T04:03:41.944Z,45.60
2018-05-26T04:04:13.966Z,45.60
2018-05-26T04:04:46.763Z,45.70
2018-05-26T04:05:18.804Z,45.70
2018-05-26T04:05:50.936Z,45.70
2018-05-26T04:06:22.900Z,45.80
2018-05-26T04:06:55.672Z,45.70
2018-05-26T04:07:27.731Z,45.70
2018-05-26T04:07:59.756Z,45.70
2018-05-26T04:08:32.556Z,45.80
2018-05-26T04:09:04.604Z,45.70
2018-05-26T04:09:37.373Z,45.60
2018-05-26T04:10:09.397Z,45.50
2018-05-26T04:10:42.183Z,45.60
2018-05-26T04:11:14.255Z,45.70
2018-05-26T04:11:46.222Z,45.50
2018-05-26T04:12:18.257Z,45.70
2018-05-26T04:12:50.286Z,45.60
2018-05-26T04:13:23.080Z,45.60
2018-05-26T04:13:55.111Z,45.60
2018-05-26T04:14:27.877Z,45.60
2018-05-26T04:14:59.910Z,45.60
2018-05-26T04:15:32.701Z,45.70
2018-05-26T04:16:04.750Z,45.60
2018-05-26T04:16:36.795Z,45.50
2018-05-26T04:17:08.839Z,45.50
2018-05-26T04:17:41.638Z,45.70
2018-05-26T04:18:14.424Z,45.70
2018-05-26T04:18:46.442Z,45.60
2018-05-26T04:19:18.463Z,45.70
2018-05-26T04:19:50.506Z,45.70
2018-05-26T04:20:22.539Z,46.30
2018-05-26T04:20:54.561Z,45.60
2018-05-26T04:21:26.594Z,45.60
2018-05-26T04:21:58.619Z,45.60
2018-05-26T04:22:30.638Z,45.60
2018-05-26T04:23:02.651Z,45.70
2018-05-26T04:23:34.677Z,45.60
2018-05-26T04:24:07.470Z,45.60
2018-05-26T04:24:39.499Z,45.50
2018-05-26T04:25:12.282Z,45.70
2018-05-26T04:25:44.319Z,45.70
2018-05-26T04:26:17.118Z,45.70
2018-05-26T04:26:49.170Z,45.70
2018-05-26T04:27:21.188Z,45.70
2018-05-26T04:27:53.974Z,45.80
2018-05-26T04:28:26.030Z,45.70
2018-05-26T04:28:58.059Z,45.70
2018-05-26T04:29:30.849Z,46.50
2018-05-26T04:30:03.639Z,45.70
2018-05-26T04:30:35.684Z,45.70
2018-05-26T04:31:07.726Z,45.60
2018-05-26T04:31:39.753Z,45.70
2018-05-26T04:32:12.539Z,45.70
2018-05-26T04:32:44.574Z,45.70
2018-05-26T04:33:17.356Z,45.60
2018-05-26T04:33:49.415Z,45.60
2018-05-26T04:34:22.216Z,45.60
2018-05-26T04:34:54.231Z,45.60
2018-05-26T04:35:26.356Z,45.60
2018-05-26T04:35:58.326Z,45.70
2018-05-26T04:36:31.139Z,45.50
2018-05-26T04:37:03.190Z,45.60
2018-05-26T04:37:35.223Z,45.60
2018-05-26T04:38:07.258Z,45.60
2018-05-26T04:38:39.286Z,45.70
2018-05-26T04:39:12.079Z,45.70
2018-05-26T04:39:44.110Z,45.70
2018-05-26T04:40:16.891Z,45.70
2018-05-26T04:40:49.676Z,45.60
2018-05-26T04:41:21.722Z,45.60
2018-05-26T04:41:54.708Z,45.60
2018-05-26T04:42:26.743Z,45.60
2018-05-26T04:42:58.769Z,45.60
2018-05-26T04:43:30.816Z,45.70
2018-05-26T04:44:02.830Z,45.70
2018-05-26T04:44:34.860Z,45.70
2018-05-26T04:45:06.887Z,45.50
2018-05-26T04:45:39.701Z,45.60
2018-05-26T04:46:11.718Z,45.50
2018-05-26T04:46:43.761Z,45.50
2018-05-26T04:47:15.799Z,45.40
2018-05-26T04:47:47.792Z,44.90
2018-05-26T04:48:19.815Z,45.20
2018-05-26T04:48:52.614Z,45.30
2018-05-26T04:49:24.662Z,45.30
2018-05-26T04:49:56.676Z,45.20
2018-05-26T04:50:29.536Z,45.20
2018-05-26T04:51:01.550Z,45.20
2018-05-26T04:51:33.626Z,45.60
2018-05-26T04:52:05.665Z,45.30
2018-05-26T04:52:37.654Z,45.30
2018-05-26T04:53:10.497Z,45.40
2018-05-26T04:53:42.504Z,45.20
2018-05-26T04:54:14.570Z,45.30
2018-05-26T04:54:46.644Z,45.30
2018-05-26T04:55:18.656Z,45.30
2018-05-26T04:55:50.679Z,45.30
2018-05-26T04:56:22.704Z,45.30
2018-05-26T04:56:54.768Z,45.30
2018-05-26T04:57:26.793Z,45.40
2018-05-26T04:57:58.810Z,45.30
2018-05-26T04:58:31.597Z,45.30
2018-05-26T04:59:03.624Z,45.30
2018-05-26T04:59:35.657Z,45.30
2018-05-26T05:00:08.451Z,45.40
2018-05-26T05:00:40.491Z,45.40
2018-05-26T05:01:13.263Z,45.30
2018-05-26T05:01:45.305Z,45.20
2018-05-26T05:02:17.355Z,45.30
2018-05-26T05:02:50.157Z,45.30
2018-05-26T05:03:22.213Z,45.30
2018-05-26T05:03:54.239Z,45.30
2018-05-26T05:04:26.308Z,45.40
2018-05-26T05:04:58.343Z,45.40
2018-05-26T05:05:30.404Z,45.40
2018-05-26T05:06:02.423Z,45.30
2018-05-26T05:06:35.217Z,45.40
2018-05-26T05:07:07.238Z,45.40
2018-05-26T05:07:40.031Z,45.30
2018-05-26T05:08:12.083Z,45.40
2018-05-26T05:08:44.114Z,45.40
2018-05-26T05:09:16.909Z,45.40
2018-05-26T05:09:48.937Z,45.40
2018-05-26T05:10:21.728Z,45.60
2018-05-26T05:10:53.772Z,45.50
2018-05-26T05:11:25.791Z,45.50
2018-05-26T05:11:57.817Z,45.40
2018-05-26T05:12:29.853Z,45.50
2018-05-26T05:13:01.889Z,45.50
2018-05-26T05:13:33.906Z,45.50
2018-05-26T05:14:06.709Z,45.50
2018-05-26T05:14:38.745Z,45.50
2018-05-26T05:15:11.525Z,45.60
2018-05-26T05:15:43.544Z,45.50
2018-05-26T05:16:15.608Z,45.60
2018-05-26T05:16:48.403Z,45.60
2018-05-26T05:17:20.461Z,45.60
2018-05-26T05:17:52.485Z,45.60
2018-05-26T05:18:25.284Z,45.60
2018-05-26T05:18:57.308Z,45.60
2018-05-26T05:19:29.343Z,45.50
2018-05-26T05:20:02.162Z,45.60
2018-05-26T05:20:34.180Z,45.50
2018-05-26T05:21:06.220Z,45.50
2018-05-26T05:21:39.007Z,45.50
2018-05-26T05:22:11.050Z,45.50
2018-05-26T05:22:43.858Z,45.60
2018-05-26T05:23:15.879Z,45.60
2018-05-26T05:23:47.905Z,45.60
2018-05-26T05:24:20.695Z,45.70
2018-05-26T05:24:53.219Z,45.60
2018-05-26T05:25:25.206Z,45.60
2018-05-26T05:25:57.243Z,45.60
2018-05-26T05:26:30.061Z,45.60
2018-05-26T05:27:02.082Z,45.70
2018-05-26T05:27:34.143Z,45.60
2018-05-26T05:28:06.173Z,45.60
2018-05-26T05:28:38.969Z,45.50
2018-05-26T05:29:11.762Z,45.70
2018-05-26T05:29:43.784Z,45.60
2018-05-26T05:30:15.805Z,45.60
2018-05-26T05:30:48.591Z,45.70
2018-05-26T05:31:20.644Z,45.70
2018-05-26T05:31:53.438Z,45.60
2018-05-26T05:32:25.492Z,46.30
2018-05-26T05:32:57.522Z,45.60
2018-05-26T05:33:29.543Z,45.50
2018-05-26T05:34:01.574Z,45.60
2018-05-26T05:34:33.606Z,45.60
2018-05-26T05:35:05.652Z,45.60
2018-05-26T05:35:37.676Z,45.60
2018-05-26T05:36:09.737Z,45.60
2018-05-26T05:36:41.751Z,45.50
2018-05-26T05:37:14.557Z,45.60
2018-05-26T05:37:46.635Z,45.60
2018-05-26T05:38:18.671Z,45.70
2018-05-26T05:38:50.691Z,45.70
2018-05-26T05:39:22.717Z,45.70
2018-05-26T05:39:54.772Z,45.70
2018-05-26T05:40:26.791Z,45.70
2018-05-26T05:40:58.818Z,45.80
2018-05-26T05:41:30.859Z,45.70
2018-05-26T05:42:02.884Z,45.70
2018-05-26T05:42:35.682Z,45.70
2018-05-26T05:43:07.719Z,45.60
2018-05-26T05:43:39.774Z,45.60
2018-05-26T05:44:12.543Z,45.70
2018-05-26T05:44:44.598Z,45.70
2018-05-26T05:45:17.363Z,45.60
2018-05-26T05:45:49.397Z,45.60
2018-05-26T05:46:22.187Z,45.60
2018-05-26T05:46:54.213Z,45.60
2018-05-26T05:47:27.010Z,45.70
2018-05-26T05:47:59.039Z,45.70
2018-05-26T05:48:31.815Z,46.60
2018-05-26T05:49:03.851Z,45.80
2018-05-26T05:49:35.863Z,45.80
2018-05-26T05:50:07.908Z,45.80
2018-05-26T05:50:39.919Z,45.70
2018-05-26T05:51:12.071Z,45.70
2018-05-26T05:51:44.893Z,45.70
2018-05-26T05:52:16.911Z,45.60
2018-05-26T05:52:48.922Z,45.70
2018-05-26T05:53:21.725Z,46.10
2018-05-26T05:53:53.777Z,45.60
2018-05-26T05:54:26.610Z,45.60
2018-05-26T05:54:58.626Z,45.60
2018-05-26T05:55:30.684Z,45.60
2018-05-26T05:56:02.711Z,45.60
2018-05-26T05:56:34.774Z,45.60
2018-05-26T05:57:07.540Z,45.50
2018-05-26T05:57:39.566Z,45.40
2018-05-26T05:58:11.607Z,45.40
2018-05-26T05:58:44.428Z,45.50
2018-05-26T05:59:16.463Z,45.40
2018-05-26T05:59:48.483Z,45.40
2018-05-26T06:00:21.276Z,45.50
2018-05-26T06:00:53.303Z,45.50
2018-05-26T06:01:26.110Z,45.50
2018-05-26T06:01:58.137Z,45.50
2018-05-26T06:02:30.163Z,45.40
2018-05-26T06:03:02.982Z,45.50
2018-05-26T06:03:35.038Z,45.40
2018-05-26T06:04:07.040Z,45.50
2018-05-26T06:04:39.831Z,45.60
2018-05-26T06:05:11.852Z,46.30
2018-05-26T06:05:44.643Z,45.60
2018-05-26T06:06:16.677Z,45.50
2018-05-26T06:06:49.468Z,45.50
2018-05-26T06:07:21.531Z,45.40
2018-05-26T06:07:53.590Z,45.40
2018-05-26T06:08:25.636Z,45.40
2018-05-26T06:08:57.653Z,45.30
2018-05-26T06:09:30.452Z,45.40
2018-05-26T06:10:02.475Z,45.30
2018-05-26T06:10:35.256Z,45.40
2018-05-26T06:11:07.297Z,45.40
2018-05-26T06:11:40.091Z,45.50
2018-05-26T06:12:12.113Z,45.50
2018-05-26T06:12:44.971Z,45.50
2018-05-26T06:13:17.822Z,45.60
2018-05-26T06:13:49.859Z,45.60
2018-05-26T06:14:21.886Z,45.60
2018-05-26T06:14:53.961Z,45.70
2018-05-26T06:15:26.744Z,45.60
2018-05-26T06:15:58.731Z,45.60
2018-05-26T06:16:30.787Z,45.60
2018-05-26T06:17:03.551Z,45.60
2018-05-26T06:17:35.601Z,45.60
2018-05-26T06:18:08.404Z,45.50
2018-05-26T06:18:40.443Z,45.50
2018-05-26T06:19:12.473Z,45.50
2018-05-26T06:19:45.294Z,45.60
2018-05-26T06:20:17.318Z,45.60
2018-05-26T06:20:49.378Z,45.60
2018-05-26T06:21:21.417Z,45.60
2018-05-26T06:21:54.122Z,45.60
2018-05-26T06:22:26.159Z,45.60
2018-05-26T06:22:58.173Z,45.60
2018-05-26T06:23:31.000Z,45.70
2018-05-26T06:24:02.986Z,45.70
2018-05-26T06:24:35.774Z,45.70
2018-05-26T06:25:07.795Z,45.70
2018-05-26T06:25:40.592Z,45.80
2018-05-26T06:26:12.613Z,45.80
2018-05-26T06:26:45.447Z,45.80
2018-05-26T06:27:17.465Z,45.70
2018-05-26T06:27:49.508Z,45.70
2018-05-26T06:28:22.294Z,45.70
2018-05-26T06:28:54.346Z,45.70
2018-05-26T06:29:26.406Z,45.70
2018-05-26T06:29:58.416Z,45.90
2018-05-26T06:30:31.211Z,45.70
2018-05-26T06:31:03.275Z,45.70
2018-05-26T06:31:35.327Z,45.70
2018-05-26T06:32:07.368Z,45.80
2018-05-26T06:32:39.394Z,45.80
2018-05-26T06:33:11.431Z,45.70
2018-05-26T06:33:43.439Z,45.80
2018-05-26T06:34:15.500Z,45.80
2018-05-26T06:34:47.517Z,45.80
2018-05-26T06:35:19.574Z,45.70
2018-05-26T06:35:51.606Z,45.80
2018-05-26T06:36:24.385Z,45.80
2018-05-26T06:36:56.431Z,45.80
2018-05-26T06:37:29.227Z,45.90
2018-05-26T06:38:01.344Z,45.90
2018-05-26T06:38:34.143Z,45.90
2018-05-26T06:39:06.183Z,45.90
2018-05-26T06:39:38.206Z,45.90
2018-05-26T06:40:11.051Z,46.10
2018-05-26T06:40:43.150Z,45.90
2018-05-26T06:41:15.931Z,46.10
2018-05-26T06:41:47.970Z,46.00
2018-05-26T06:42:20.009Z,46.00
2018-05-26T06:42:52.810Z,46.00
2018-05-26T06:43:24.853Z,46.00
2018-05-26T06:43:56.884Z,45.90
2018-05-26T06:44:29.682Z,45.90
2018-05-26T06:45:01.717Z,45.90
2018-05-26T06:45:33.734Z,45.90
2018-05-26T06:46:05.775Z,45.90
2018-05-26T06:46:37.803Z,46.00
2018-05-26T06:47:09.830Z,46.00
2018-05-26T06:47:41.880Z,46.10
2018-05-26T06:48:13.950Z,46.20
2018-05-26T06:48:45.987Z,46.20
2018-05-26T06:49:18.007Z,46.10
2018-05-26T06:49:50.788Z,46.00
2018-05-26T06:50:22.805Z,46.00
2018-05-26T06:50:54.841Z,46.00
2018-05-26T06:51:26.857Z,45.90
2018-05-26T06:51:58.915Z,46.00
2018-05-26T06:52:31.038Z,45.80
2018-05-26T06:53:03.845Z,45.80
2018-05-26T06:53:35.880Z,45.80
2018-05-26T06:54:07.943Z,45.80
2018-05-26T06:54:39.983Z,45.90
2018-05-26T06:55:12.046Z,46.00